createdAt,value
2023-03-29T00:00:15.874Z,51.27
2023-03-29T00:03:40.348Z,51.22
2023-03-29T00:06:47.772Z,51.15
2023-03-29T00:09:50.926Z,51.25
2023-03-29T00:12:54.396Z,51.24
2023-03-29T00:15:57.495Z,51.38
2023-03-29T00:19:00.685Z,51.24
2023-03-29T00:22:07.510Z,51.38
2023-03-29T00:25:11.629Z,51.30
2023-03-29T00:28:14.906Z,51.49
2023-03-29T00:31:18.590Z,51.58
2023-03-29T00:34:26.407Z,51.52
2023-03-29T00:37:32.202Z,51.57
2023-03-29T00:40:42.258Z,51.51
2023-03-29T00:44:05.458Z,51.72
2023-03-29T00:47:08.830Z,51.58
2023-03-29T00:50:22.607Z,51.57
2023-03-29T00:53:28.719Z,51.69
2023-03-29T00:56:37.202Z,51.68
2023-03-29T00:59:42.925Z,51.80
2023-03-29T01:02:51.096Z,51.75
2023-03-29T01:06:02.851Z,51.72
2023-03-29T01:09:10.428Z,51.68
2023-03-29T01:12:18.456Z,51.80
2023-03-29T01:15:27.825Z,51.92
2023-03-29T01:18:31.494Z,51.86
2023-03-29T01:21:47.897Z,51.83
2023-03-29T01:25:18.932Z,51.93
2023-03-29T01:28:29.094Z,51.94
2023-03-29T01:31:39.270Z,52.08
2023-03-29T01:34:48.900Z,51.98
2023-03-29T01:38:15.966Z,52.09
2023-03-29T01:41:19.419Z,52.03
2023-03-29T01:44:25.663Z,52.00
2023-03-29T01:48:01.619Z,52.01
2023-03-29T01:51:15.029Z,52.16
2023-03-29T01:54:26.369Z,52.13
2023-03-29T01:57:32.079Z,52.00
2023-03-29T02:00:36.342Z,52.08
2023-03-29T02:03:45.267Z,52.09
2023-03-29T02:06:50.456Z,52.14
2023-03-29T02:09:54.791Z,52.08
2023-03-29T02:12:58.695Z,52.03
2023-03-29T02:16:04.841Z,52.18
2023-03-29T02:19:10.727Z,52.22
2023-03-29T02:22:16.637Z,52.27
2023-03-29T02:25:22.564Z,52.26
2023-03-29T02:28:27.078Z,52.20
2023-03-29T02:31:41.422Z,52.38
2023-03-29T02:34:58.703Z,52.40
2023-03-29T02:38:09.101Z,52.56
2023-03-29T02:41:13.069Z,52.56
2023-03-29T02:44:24.638Z,52.57
2023-03-29T02:47:41.781Z,52.55
2023-03-29T02:50:47.969Z,52.56
2023-03-29T02:53:57.246Z,52.58
2023-03-29T02:57:06.587Z,52.73
2023-03-29T03:00:11.581Z,52.77
2023-03-29T03:03:15.725Z,52.72
2023-03-29T03:06:21.496Z,52.78
2023-03-29T03:09:24.914Z,52.90
2023-03-29T03:12:28.814Z,52.93
2023-03-29T03:15:35.646Z,53.13
2023-03-29T03:18:39.187Z,53.19
2023-03-29T03:21:42.379Z,53.23
2023-03-29T03:24:46.221Z,53.16
2023-03-29T03:27:50.371Z,53.29
2023-03-29T03:30:55.162Z,53.42
2023-03-29T03:34:01.328Z,53.46
2023-03-29T03:37:13.913Z,53.51
2023-03-29T03:40:17.430Z,53.46
2023-03-29T03:43:20.803Z,53.64
2023-03-29T03:46:24.325Z,53.63
2023-03-29T03:49:28.223Z,53.72
2023-03-29T03:52:31.988Z,53.68
2023-03-29T03:55:35.401Z,53.61
2023-03-29T03:58:44.648Z,53.57
2023-03-29T04:01:47.844Z,53.71
2023-03-29T04:04:54.812Z,53.74
2023-03-29T04:08:03.240Z,53.90
2023-03-29T04:11:26.259Z,54.16
2023-03-29T04:14:31.725Z,54.13
2023-03-29T04:17:47.770Z,54.39
2023-03-29T04:20:57.468Z,54.40
2023-03-29T04:24:01.753Z,54.53
2023-03-29T04:27:05.460Z,54.41
2023-03-29T04:30:09.704Z,54.37
2023-03-29T04:33:35.833Z,54.24
2023-03-29T04:36:39.594Z,54.21
2023-03-29T04:39:49.391Z,54.21
2023-03-29T04:42:54.450Z,54.14
2023-03-29T04:45:58.626Z,54.25
2023-03-29T04:49:26.115Z,54.34
2023-03-29T04:52:33.094Z,54.32
2023-03-29T04:55:36.667Z,54.49
2023-03-29T04:58:42.319Z,54.60
2023-03-29T05:01:45.876Z,54.79
2023-03-29T05:04:49.300Z,54.72
2023-03-29T05:07:54.922Z,54.87
2023-03-29T05:11:02.553Z,54.93
2023-03-29T05:14:07.420Z,54.97
2023-03-29T05:17:10.868Z,55.04
2023-03-29T05:20:14.071Z,55.19
2023-03-29T05:23:19.388Z,55.27
2023-03-29T05:26:54.513Z,55.47
2023-03-29T05:29:57.845Z,55.49
2023-03-29T05:33:05.799Z,55.61
2023-03-29T05:36:15.310Z,55.71
2023-03-29T05:39:24.223Z,55.64
2023-03-29T05:42:27.708Z,55.73
2023-03-29T05:45:37.553Z,55.74
2023-03-29T05:48:40.895Z,55.97
2023-03-29T05:51:45.705Z,55.77
2023-03-29T05:54:48.972Z,55.83
2023-03-29T05:57:52.546Z,55.71
2023-03-29T06:01:00.598Z,55.69
2023-03-29T06:04:30.868Z,55.51
2023-03-29T06:08:00.626Z,55.58
2023-03-29T06:11:18.894Z,55.39
2023-03-29T06:14:42.460Z,55.10
2023-03-29T06:17:57.339Z,54.84
2023-03-29T06:21:04.320Z,54.46
2023-03-29T06:24:07.831Z,54.36
2023-03-29T06:27:15.665Z,54.05
2023-03-29T06:30:20.926Z,53.97
2023-03-29T06:33:27.685Z,53.74
2023-03-29T06:36:39.436Z,53.53
2023-03-29T06:39:42.722Z,53.43
2023-03-29T06:42:58.412Z,53.10
2023-03-29T06:46:20.051Z,52.86
2023-03-29T06:49:46.364Z,52.53
2023-03-29T06:53:05.855Z,52.37
2023-03-29T06:56:11.158Z,52.14
2023-03-29T06:59:29.321Z,51.94
2023-03-29T07:02:49.370Z,51.78
2023-03-29T07:05:56.861Z,51.32
2023-03-29T07:09:01.823Z,50.90
2023-03-29T07:12:26.472Z,50.50
2023-03-29T07:15:33.704Z,50.32
2023-03-29T07:19:09.557Z,50.17
2023-03-29T07:22:35.791Z,49.98
2023-03-29T07:25:41.089Z,49.61
2023-03-29T07:28:44.494Z,49.44
2023-03-29T07:31:47.669Z,49.50
2023-03-29T07:35:09.466Z,49.31
2023-03-29T07:38:12.673Z,49.36
2023-03-29T07:41:17.427Z,49.19
2023-03-29T07:44:23.509Z,49.12
2023-03-29T07:47:26.939Z,48.88
2023-03-29T07:50:32.657Z,48.83
2023-03-29T07:53:37.167Z,48.65
2023-03-29T07:56:42.347Z,48.68
2023-03-29T07:59:51.882Z,48.52
2023-03-29T08:02:58.122Z,48.46
2023-03-29T08:06:04.771Z,48.57
2023-03-29T08:09:08.836Z,48.36
2023-03-29T08:12:15.887Z,48.37
2023-03-29T08:15:19.285Z,48.19
2023-03-29T08:18:22.557Z,48.17
2023-03-29T08:21:26.543Z,48.01
2023-03-29T08:24:30.092Z,47.92
2023-03-29T08:27:37.822Z,47.90
2023-03-29T08:30:42.141Z,47.63
2023-03-29T08:33:45.720Z,47.78
2023-03-29T08:37:15.306Z,47.69
2023-03-29T08:40:30.172Z,47.48
2023-03-29T08:44:09.651Z,47.28
2023-03-29T08:47:47.968Z,47.34
2023-03-29T08:50:58.551Z,47.39
2023-03-29T08:54:01.857Z,47.38
2023-03-29T08:57:29.300Z,47.24
2023-03-29T09:00:44.350Z,47.22
2023-03-29T09:03:49.850Z,47.11
2023-03-29T09:07:03.489Z,46.90
2023-03-29T09:10:20.593Z,46.91
2023-03-29T09:13:52.963Z,46.57
2023-03-29T09:17:18.019Z,46.40
2023-03-29T09:20:27.581Z,46.09
2023-03-29T09:24:00.272Z,45.55
2023-03-29T09:27:26.504Z,45.40
2023-03-29T09:30:50.803Z,45.19
2023-03-29T09:34:07.120Z,44.70
2023-03-29T09:37:35.473Z,44.32
2023-03-29T09:40:49.101Z,44.05
2023-03-29T09:44:00.565Z,43.49
2023-03-29T09:47:19.357Z,43.13
2023-03-29T09:50:35.297Z,43.99
2023-03-29T09:53:40.934Z,42.77
2023-03-29T09:57:13.895Z,42.49
2023-03-29T10:00:17.873Z,42.21
2023-03-29T10:03:26.501Z,41.75
2023-03-29T10:06:36.957Z,41.43
2023-03-29T10:09:44.896Z,40.99
2023-03-29T10:12:59.338Z,40.93
2023-03-29T10:16:05.284Z,40.50
2023-03-29T10:19:27.872Z,40.33
2023-03-29T10:22:37.991Z,40.09
2023-03-29T10:25:42.766Z,39.79
2023-03-29T10:28:46.483Z,39.64
2023-03-29T10:31:50.864Z,39.23
2023-03-29T10:34:55.504Z,38.96
2023-03-29T10:38:08.046Z,38.77
2023-03-29T10:41:12.842Z,38.72
2023-03-29T10:44:42.681Z,38.64
2023-03-29T10:47:48.570Z,38.33
2023-03-29T10:50:53.306Z,38.42
2023-03-29T10:54:00.400Z,37.98
2023-03-29T10:57:13.346Z,37.63
2023-03-29T11:00:35.782Z,37.70
2023-03-29T11:03:48.302Z,37.48
2023-03-29T11:07:20.010Z,37.10
2023-03-29T11:10:55.990Z,36.73
2023-03-29T11:14:40.627Z,36.60
2023-03-29T11:17:51.066Z,36.45
2023-03-29T11:21:10.781Z,36.27
2023-03-29T11:24:47.036Z,36.21
2023-03-29T11:27:53.262Z,35.51
2023-03-29T11:30:59.024Z,35.89
2023-03-29T11:34:02.354Z,35.56
2023-03-29T11:37:25.540Z,35.48
2023-03-29T11:40:29.854Z,35.63
2023-03-29T11:43:46.810Z,35.49
2023-03-29T11:47:01.582Z,35.60
2023-03-29T11:50:22.637Z,35.63
2023-03-29T11:53:37.223Z,35.40
2023-03-29T11:56:46.896Z,35.29
2023-03-29T12:00:15.955Z,35.27
2023-03-29T12:03:32.445Z,35.20
2023-03-29T12:07:00.817Z,35.10
2023-03-29T12:10:07.050Z,35.40
2023-03-29T12:13:56.280Z,35.55
2023-03-29T12:17:03.423Z,35.50
2023-03-29T12:20:29.392Z,35.70
2023-03-29T12:23:35.547Z,35.71
2023-03-29T12:26:57.851Z,35.72
2023-03-29T12:30:38.516Z,35.91
2023-03-29T12:34:20.040Z,36.03
2023-03-29T12:38:21.268Z,36.28
2023-03-29T12:42:14.843Z,36.45
2023-03-29T12:45:43.468Z,36.17
2023-03-29T12:48:55.574Z,36.23
2023-03-29T12:52:02.467Z,36.40
2023-03-29T12:55:23.890Z,36.57
2023-03-29T12:58:39.603Z,36.58
2023-03-29T13:02:00.079Z,36.72
2023-03-29T13:05:05.639Z,36.68
2023-03-29T13:08:35.105Z,36.93
2023-03-29T13:11:42.737Z,37.08
2023-03-29T13:14:51.924Z,36.93
2023-03-29T13:18:22.046Z,37.01
2023-03-29T13:21:43.730Z,37.07
2023-03-29T13:25:02.255Z,37.04
2023-03-29T13:28:20.424Z,37.25
2023-03-29T13:31:47.153Z,37.12
2023-03-29T13:34:58.556Z,37.16
2023-03-29T13:38:22.270Z,37.26
2023-03-29T13:41:32.253Z,37.16
2023-03-29T13:44:45.564Z,37.30
2023-03-29T13:47:58.722Z,37.09
2023-03-29T13:51:13.370Z,37.01
2023-03-29T13:54:35.029Z,37.16
2023-03-29T13:57:49.747Z,36.97
2023-03-29T14:01:16.642Z,37.09
2023-03-29T14:04:26.688Z,37.30
2023-03-29T14:07:33.454Z,37.07
2023-03-29T14:10:42.425Z,36.97
2023-03-29T14:13:45.663Z,36.95
2023-03-29T14:16:49.484Z,36.85
2023-03-29T14:19:53.685Z,36.94
2023-03-29T14:22:56.940Z,36.59
2023-03-29T14:26:10.650Z,36.67
2023-03-29T14:29:14.638Z,36.61
2023-03-29T14:32:19.859Z,36.63
2023-03-29T14:35:30.867Z,36.69
2023-03-29T14:38:37.621Z,36.87
2023-03-29T14:41:48.700Z,37.05
2023-03-29T14:44:58.277Z,37.10
2023-03-29T14:48:02.341Z,37.17
2023-03-29T14:51:06.536Z,37.24
2023-03-29T14:54:19.545Z,37.33
2023-03-29T14:57:29.143Z,37.57
2023-03-29T15:00:44.086Z,37.48
2023-03-29T15:03:57.081Z,37.51
2023-03-29T15:07:00.416Z,37.63
2023-03-29T15:10:06.478Z,37.62
2023-03-29T15:13:19.665Z,37.68
2023-03-29T15:16:22.964Z,37.84
2023-03-29T15:19:27.290Z,37.77
2023-03-29T15:22:34.570Z,37.89
2023-03-29T15:25:46.316Z,37.92
2023-03-29T15:28:55.648Z,38.01
2023-03-29T15:31:59.716Z,38.01
2023-03-29T15:35:06.384Z,37.97
2023-03-29T15:38:12.675Z,38.13
2023-03-29T15:41:16.530Z,38.36
2023-03-29T15:44:33.245Z,38.45
2023-03-29T15:47:36.370Z,38.50
2023-03-29T15:50:39.544Z,38.37
2023-03-29T15:53:42.705Z,38.40
2023-03-29T15:57:08.698Z,38.37
2023-03-29T16:00:13.791Z,38.36
2023-03-29T16:03:18.026Z,38.35
2023-03-29T16:06:23.901Z,38.35
2023-03-29T16:09:27.418Z,38.35
2023-03-29T16:12:30.606Z,38.27
2023-03-29T16:15:36.968Z,38.37
2023-03-29T16:18:40.080Z,38.30
2023-03-29T16:21:43.194Z,38.40
2023-03-29T16:24:46.364Z,38.47
2023-03-29T16:27:58.122Z,38.62
2023-03-29T16:31:01.250Z,38.68
2023-03-29T16:34:05.306Z,38.77
2023-03-29T16:37:08.618Z,38.89
2023-03-29T16:40:12.587Z,38.98
2023-03-29T16:43:17.116Z,39.24
2023-03-29T16:46:20.941Z,39.31
2023-03-29T16:49:24.448Z,39.26
2023-03-29T16:52:27.729Z,39.30
2023-03-29T16:55:30.902Z,39.27
2023-03-29T16:58:34.064Z,39.37
2023-03-29T17:01:37.380Z,39.53
2023-03-29T17:04:40.938Z,39.51
2023-03-29T17:07:44.549Z,39.49
2023-03-29T17:10:53.042Z,39.50
2023-03-29T17:13:56.266Z,39.51
2023-03-29T17:16:59.576Z,39.62
2023-03-29T17:20:06.430Z,39.65
2023-03-29T17:23:10.031Z,39.58
2023-03-29T17:26:13.404Z,39.58
2023-03-29T17:29:16.745Z,39.68
2023-03-29T17:32:19.831Z,39.62
2023-03-29T17:35:22.944Z,39.65
2023-03-29T17:38:27.190Z,39.67
2023-03-29T17:41:31.049Z,39.67
2023-03-29T17:44:34.572Z,39.75
2023-03-29T17:47:38.292Z,39.70
2023-03-29T17:50:41.365Z,39.76
2023-03-29T17:53:44.566Z,39.80
2023-03-29T17:56:48.884Z,39.74
2023-03-29T17:59:52.371Z,39.82
2023-03-29T18:02:55.650Z,39.92
2023-03-29T18:05:58.946Z,39.79
2023-03-29T18:09:02.067Z,39.85
2023-03-29T18:12:05.528Z,39.87
2023-03-29T18:15:09.046Z,39.98
2023-03-29T18:18:12.071Z,40.01
2023-03-29T18:21:16.853Z,40.02
2023-03-29T18:24:20.009Z,40.13
2023-03-29T18:27:23.183Z,40.03
2023-03-29T18:30:26.339Z,40.13
2023-03-29T18:33:35.158Z,40.12
2023-03-29T18:36:38.549Z,40.20
2023-03-29T18:39:41.858Z,40.30
2023-03-29T18:42:45.001Z,40.36
2023-03-29T18:45:48.421Z,40.44
2023-03-29T18:48:53.372Z,40.44
2023-03-29T18:51:56.859Z,40.44
2023-03-29T18:54:59.969Z,40.42
2023-03-29T18:58:03.594Z,40.54
2023-03-29T19:01:07.844Z,40.60
2023-03-29T19:04:11.584Z,40.69
2023-03-29T19:07:15.160Z,40.75
2023-03-29T19:10:18.434Z,40.83
2023-03-29T19:13:21.704Z,40.86
2023-03-29T19:16:25.778Z,40.94
2023-03-29T19:19:28.957Z,41.00
2023-03-29T19:22:33.965Z,41.12
2023-03-29T19:25:37.948Z,41.12
2023-03-29T19:28:41.133Z,41.10
2023-03-29T19:31:44.282Z,41.25
2023-03-29T19:34:47.699Z,41.28
2023-03-29T19:37:50.816Z,41.36
2023-03-29T19:40:54.000Z,41.39
2023-03-29T19:43:57.111Z,41.45
2023-03-29T19:47:00.394Z,41.60
2023-03-29T19:50:04.903Z,41.69
2023-03-29T19:53:08.911Z,41.68
2023-03-29T19:56:15.594Z,41.84
2023-03-29T19:59:20.265Z,41.88
2023-03-29T20:02:23.358Z,41.95
2023-03-29T20:05:27.372Z,41.97
2023-03-29T20:08:30.559Z,42.09
2023-03-29T20:11:33.803Z,42.20
2023-03-29T20:14:40.259Z,42.31
2023-03-29T20:17:43.555Z,42.36
2023-03-29T20:20:49.511Z,42.41
2023-03-29T20:23:52.648Z,42.46
2023-03-29T20:26:55.956Z,42.56
2023-03-29T20:30:05.112Z,42.70
2023-03-29T20:33:08.535Z,42.76
2023-03-29T20:36:12.472Z,42.79
2023-03-29T20:39:18.762Z,42.87
2023-03-29T20:42:24.564Z,42.89
2023-03-29T20:45:27.805Z,43.02
2023-03-29T20:48:30.931Z,43.16
2023-03-29T20:51:33.991Z,43.17
2023-03-29T20:54:38.838Z,43.25
2023-03-29T20:57:42.270Z,43.41
2023-03-29T21:00:46.886Z,43.45
2023-03-29T21:03:50.042Z,43.51
2023-03-29T21:06:53.681Z,43.66
2023-03-29T21:09:56.942Z,43.68
2023-03-29T21:13:02.793Z,43.71
2023-03-29T21:16:06.625Z,43.80
2023-03-29T21:19:10.137Z,43.93
2023-03-29T21:22:13.863Z,44.08
2023-03-29T21:25:17.498Z,44.10
2023-03-29T21:28:20.628Z,44.24
2023-03-29T21:31:23.961Z,44.34
2023-03-29T21:34:27.104Z,44.43
2023-03-29T21:37:30.400Z,44.56
2023-03-29T21:40:36.040Z,44.72
2023-03-29T21:43:39.623Z,44.78
2023-03-29T21:46:42.734Z,44.90
2023-03-29T21:49:45.853Z,44.95
2023-03-29T21:52:49.006Z,45.10
2023-03-29T21:55:52.554Z,45.14
2023-03-29T21:58:55.928Z,45.23
2023-03-29T22:01:59.110Z,45.29
2023-03-29T22:05:02.278Z,45.41
2023-03-29T22:08:06.682Z,45.48
2023-03-29T22:11:13.849Z,45.57
2023-03-29T22:14:17.001Z,45.63
2023-03-29T22:17:20.112Z,45.77
2023-03-29T22:20:24.350Z,45.81
2023-03-29T22:23:27.802Z,45.89
2023-03-29T22:26:32.525Z,45.97
2023-03-29T22:29:35.681Z,46.10
2023-03-29T22:32:38.797Z,46.20
2023-03-29T22:35:42.264Z,46.30
2023-03-29T22:38:46.399Z,46.39
2023-03-29T22:41:49.593Z,46.52
2023-03-29T22:44:52.651Z,46.60
2023-03-29T22:47:55.875Z,46.67
2023-03-29T22:50:59.347Z,46.70
2023-03-29T22:54:02.494Z,46.81
2023-03-29T22:57:05.721Z,46.94
2023-03-29T23:00:10.512Z,47.02
2023-03-29T23:03:13.961Z,47.12
2023-03-29T23:06:17.346Z,47.22
2023-03-29T23:09:21.068Z,47.34
2023-03-29T23:12:24.273Z,47.36
2023-03-29T23:15:29.049Z,47.47
2023-03-29T23:18:34.939Z,47.55
2023-03-29T23:21:38.447Z,47.68
2023-03-29T23:24:43.568Z,47.76
2023-03-29T23:27:46.665Z,47.87
2023-03-29T23:31:10.731Z,47.92
2023-03-29T23:34:13.921Z,47.96
2023-03-29T23:37:17.044Z,48.02
2023-03-29T23:40:20.774Z,48.22
2023-03-29T23:43:23.939Z,48.22
2023-03-29T23:46:27.078Z,48.34
2023-03-29T23:49:30.182Z,48.47
2023-03-29T23:52:33.826Z,48.61
2023-03-29T23:55:37.153Z,48.66
2023-03-29T23:58:40.326Z,48.85
